sensor_id;sensor_type;location;lat;lon;timestamp;P1;durP1;ratioP1;P2;durP2;ratioP2
16967;SDS011;64862;54.398;10.126;2023-02-03T00:04:49;11.52;;;5.68;;
16967;SDS011;64862;54.398;10.126;2023-02-03T00:14:52;11.73;;;5.05;;
16967;SDS011;64862;54.398;10.126;2023-02-03T00:24:55;9.73;;;4.43;;
16967;SDS011;64862;54.398;10.126;2023-02-03T00:34:58;7.82;;;5.20;;
16967;SDS011;64862;54.398;10.126;2023-02-03T00:45:01;16.48;;;6.40;;
16967;SDS011;64862;54.398;10.126;2023-02-03T00:55:06;16.02;;;7.93;;
16967;SDS011;64862;54.398;10.126;2023-02-03T01:05:09;20.73;;;8.82;;
16967;SDS011;64862;54.398;10.126;2023-02-03T01:15:13;41.70;;;6.63;;
16967;SDS011;64862;54.398;10.126;2023-02-03T01:25:15;33.40;;;4.97;;
16967;SDS011;64862;54.398;10.126;2023-02-03T01:35:19;38.47;;;4.70;;
16967;SDS011;64862;54.398;10.126;2023-02-03T01:45:21;36.63;;;4.78;;
16967;SDS011;64862;54.398;10.126;2023-02-03T01:55:27;37.90;;;4.68;;
16967;SDS011;64862;54.398;10.126;2023-02-03T02:05:34;45.80;;;5.28;;
16967;SDS011;64862;54.398;10.126;2023-02-03T02:15:43;37.78;;;4.20;;
16967;SDS011;64862;54.398;10.126;2023-02-03T02:25:57;34.92;;;4.57;;
16967;SDS011;64862;54.398;10.126;2023-02-03T02:36:28;35.72;;;4.32;;
16967;SDS011;64862;54.398;10.126;2023-02-03T02:46:37;30.50;;;3.95;;
16967;SDS011;64862;54.398;10.126;2023-02-03T02:56:56;27.15;;;3.60;;
16967;SDS011;64862;54.398;10.126;2023-02-03T03:07:04;32.17;;;4.32;;
16967;SDS011;64862;54.398;10.126;2023-02-03T03:17:12;34.20;;;4.40;;
16967;SDS011;64862;54.398;10.126;2023-02-03T03:28:09;33.35;;;4.78;;
16967;SDS011;64862;54.398;10.126;2023-02-03T03:38:18;29.90;;;3.97;;
16967;SDS011;64862;54.398;10.126;2023-02-03T03:48:31;35.65;;;4.20;;
16967;SDS011;64862;54.398;10.126;2023-02-03T03:58:39;28.50;;;3.92;;
16967;SDS011;64862;54.398;10.126;2023-02-03T04:08:44;23.60;;;3.15;;
16967;SDS011;64862;54.398;10.126;2023-02-03T04:18:48;24.38;;;3.63;;
16967;SDS011;64862;54.398;10.126;2023-02-03T04:28:50;20.13;;;3.28;;
16967;SDS011;64862;54.398;10.126;2023-02-03T04:38:54;30.08;;;3.78;;
16967;SDS011;64862;54.398;10.126;2023-02-03T04:48:56;31.85;;;4.15;;
16967;SDS011;64862;54.398;10.126;2023-02-03T04:59:00;50.10;;;4.53;;
16967;SDS011;64862;54.398;10.126;2023-02-03T05:09:02;32.50;;;4.53;;
16967;SDS011;64862;54.398;10.126;2023-02-03T05:19:08;25.02;;;4.05;;
16967;SDS011;64862;54.398;10.126;2023-02-03T05:29:11;31.55;;;4.15;;
16967;SDS011;64862;54.398;10.126;2023-02-03T05:39:14;29.70;;;3.53;;
16967;SDS011;64862;54.398;10.126;2023-02-03T05:49:17;32.00;;;3.72;;
16967;SDS011;64862;54.398;10.126;2023-02-03T05:59:21;35.65;;;4.30;;
16967;SDS011;64862;54.398;10.126;2023-02-03T06:09:23;33.22;;;3.70;;
16967;SDS011;64862;54.398;10.126;2023-02-03T06:19:29;25.83;;;3.47;;
16967;SDS011;64862;54.398;10.126;2023-02-03T06:29:31;21.33;;;3.45;;
16967;SDS011;64862;54.398;10.126;2023-02-03T06:39:35;15.95;;;2.38;;
16967;SDS011;64862;54.398;10.126;2023-02-03T06:49:37;13.60;;;2.15;;
16967;SDS011;64862;54.398;10.126;2023-02-03T06:59:42;23.58;;;3.10;;
16967;SDS011;64862;54.398;10.126;2023-02-03T07:09:44;33.25;;;4.07;;
16967;SDS011;64862;54.398;10.126;2023-02-03T07:19:51;32.22;;;4.07;;
16967;SDS011;64862;54.398;10.126;2023-02-03T07:29:53;35.53;;;4.32;;
16967;SDS011;64862;54.398;10.126;2023-02-03T07:39:57;43.78;;;6.07;;
16967;SDS011;64862;54.398;10.126;2023-02-03T07:49:59;55.67;;;6.30;;
16967;SDS011;64862;54.398;10.126;2023-02-03T08:00:03;59.63;;;6.95;;
16967;SDS011;64862;54.398;10.126;2023-02-03T08:10:12;60.92;;;6.78;;
16967;SDS011;64862;54.398;10.126;2023-02-03T08:20:18;57.88;;;7.38;;
16967;SDS011;64862;54.398;10.126;2023-02-03T08:30:21;57.30;;;7.72;;
16967;SDS011;64862;54.398;10.126;2023-02-03T08:40:25;72.40;;;7.82;;
16967;SDS011;64862;54.398;10.126;2023-02-03T08:50:27;64.97;;;8.13;;
16967;SDS011;64862;54.398;10.126;2023-02-03T09:00:31;60.28;;;7.20;;
16967;SDS011;64862;54.398;10.126;2023-02-03T09:10:33;51.17;;;7.65;;
16967;SDS011;64862;54.398;10.126;2023-02-03T09:20:38;53.75;;;7.07;;
16967;SDS011;64862;54.398;10.126;2023-02-03T09:30:40;59.58;;;8.75;;
16967;SDS011;64862;54.398;10.126;2023-02-03T09:40:43;52.88;;;7.28;;
16967;SDS011;64862;54.398;10.126;2023-02-03T09:50:50;50.88;;;6.80;;
16967;SDS011;64862;54.398;10.126;2023-02-03T10:00:55;37.38;;;5.95;;
16967;SDS011;64862;54.398;10.126;2023-02-03T10:11:00;31.42;;;4.45;;
16967;SDS011;64862;54.398;10.126;2023-02-03T10:21:18;41.65;;;5.60;;
16967;SDS011;64862;54.398;10.126;2023-02-03T10:31:31;53.08;;;7.57;;
16967;SDS011;64862;54.398;10.126;2023-02-03T10:41:37;50.60;;;7.15;;
16967;SDS011;64862;54.398;10.126;2023-02-03T10:51:42;55.55;;;7.30;;
16967;SDS011;64862;54.398;10.126;2023-02-03T11:01:50;50.78;;;7.00;;
16967;SDS011;64862;54.398;10.126;2023-02-03T11:12:01;47.03;;;5.93;;
16967;SDS011;64862;54.398;10.126;2023-02-03T11:22:11;51.97;;;6.93;;
16967;SDS011;64862;54.398;10.126;2023-02-03T11:32:15;46.67;;;6.38;;
16967;SDS011;64862;54.398;10.126;2023-02-03T11:42:23;49.08;;;7.15;;
16967;SDS011;64862;54.398;10.126;2023-02-03T11:52:46;49.00;;;6.82;;
16967;SDS011;64862;54.398;10.126;2023-02-03T12:13:50;50.10;;;6.22;;
16967;SDS011;64862;54.398;10.126;2023-02-03T12:24:06;60.15;;;7.00;;
16967;SDS011;64862;54.398;10.126;2023-02-03T12:34:23;59.20;;;7.60;;
16967;SDS011;64862;54.398;10.126;2023-02-03T12:44:31;52.60;;;7.37;;
16967;SDS011;64862;54.398;10.126;2023-02-03T12:55:02;56.58;;;6.90;;
16967;SDS011;64862;54.398;10.126;2023-02-03T13:05:17;52.85;;;6.82;;
16967;SDS011;64862;54.398;10.126;2023-02-03T13:15:26;56.85;;;7.53;;
16967;SDS011;64862;54.398;10.126;2023-02-03T13:25:36;58.73;;;7.40;;
16967;SDS011;64862;54.398;10.126;2023-02-03T13:35:54;53.92;;;8.25;;
16967;SDS011;64862;54.398;10.126;2023-02-03T13:46:08;57.17;;;8.00;;
16967;SDS011;64862;54.398;10.126;2023-02-03T13:56:23;60.75;;;7.32;;
16967;SDS011;64862;54.398;10.126;2023-02-03T14:17:01;50.97;;;6.70;;
16967;SDS011;64862;54.398;10.126;2023-02-03T14:27:05;53.83;;;6.68;;
16967;SDS011;64862;54.398;10.126;2023-02-03T14:37:20;64.38;;;7.57;;
16967;SDS011;64862;54.398;10.126;2023-02-03T14:47:25;44.70;;;6.43;;
16967;SDS011;64862;54.398;10.126;2023-02-03T14:57:43;48.03;;;6.70;;
16967;SDS011;64862;54.398;10.126;2023-02-03T15:07:51;51.00;;;6.15;;
16967;SDS011;64862;54.398;10.126;2023-02-03T15:17:59;53.17;;;7.20;;
16967;SDS011;64862;54.398;10.126;2023-02-03T15:28:21;47.42;;;6.55;;
16967;SDS011;64862;54.398;10.126;2023-02-03T15:38:33;55.35;;;6.68;;
16967;SDS011;64862;54.398;10.126;2023-02-03T15:48:39;36.90;;;4.95;;
16967;SDS011;64862;54.398;10.126;2023-02-03T15:58:48;33.10;;;4.35;;
16967;SDS011;64862;54.398;10.126;2023-02-03T16:08:50;31.63;;;4.18;;
16967;SDS011;64862;54.398;10.126;2023-02-03T16:18:57;27.58;;;4.13;;
16967;SDS011;64862;54.398;10.126;2023-02-03T16:29:12;24.88;;;3.95;;
16967;SDS011;64862;54.398;10.126;2023-02-03T16:39:34;26.25;;;3.88;;
16967;SDS011;64862;54.398;10.126;2023-02-03T16:49:54;30.20;;;3.97;;
16967;SDS011;64862;54.398;10.126;2023-02-03T17:10:19;34.72;;;3.75;;
16967;SDS011;64862;54.398;10.126;2023-02-03T17:20:23;27.73;;;3.45;;
16967;SDS011;64862;54.398;10.126;2023-02-03T17:30:25;26.48;;;3.70;;
16967;SDS011;64862;54.398;10.126;2023-02-03T17:40:29;25.25;;;3.53;;
16967;SDS011;64862;54.398;10.126;2023-02-03T17:50:33;24.42;;;3.38;;
16967;SDS011;64862;54.398;10.126;2023-02-03T18:00:36;25.33;;;3.20;;
16967;SDS011;64862;54.398;10.126;2023-02-03T18:10:40;15.02;;;2.10;;
16967;SDS011;64862;54.398;10.126;2023-02-03T18:20:43;12.60;;;2.35;;
16967;SDS011;64862;54.398;10.126;2023-02-03T18:30:46;11.05;;;2.03;;
16967;SDS011;64862;54.398;10.126;2023-02-03T18:40:52;7.57;;;1.75;;
16967;SDS011;64862;54.398;10.126;2023-02-03T18:50:55;13.80;;;2.63;;
16967;SDS011;64862;54.398;10.126;2023-02-03T19:00:58;22.67;;;2.70;;
16967;SDS011;64862;54.398;10.126;2023-02-03T19:11:00;12.02;;;2.25;;
16967;SDS011;64862;54.398;10.126;2023-02-03T19:21:08;12.02;;;1.88;;
16967;SDS011;64862;54.398;10.126;2023-02-03T19:31:13;9.05;;;1.80;;
16967;SDS011;64862;54.398;10.126;2023-02-03T19:41:17;5.55;;;1.40;;
16967;SDS011;64862;54.398;10.126;2023-02-03T19:51:22;6.78;;;1.10;;
16967;SDS011;64862;54.398;10.126;2023-02-03T20:01:26;8.13;;;1.50;;
16967;SDS011;64862;54.398;10.126;2023-02-03T20:11:28;6.93;;;1.42;;
16967;SDS011;64862;54.398;10.126;2023-02-03T20:21:32;5.20;;;1.20;;
16967;SDS011;64862;54.398;10.126;2023-02-03T20:31:34;6.82;;;1.40;;
16967;SDS011;64862;54.398;10.126;2023-02-03T20:41:41;5.05;;;0.90;;
16967;SDS011;64862;54.398;10.126;2023-02-03T20:51:43;7.20;;;1.15;;
16967;SDS011;64862;54.398;10.126;2023-02-03T21:01:47;3.72;;;0.90;;
16967;SDS011;64862;54.398;10.126;2023-02-03T21:11:52;3.58;;;1.10;;
16967;SDS011;64862;54.398;10.126;2023-02-03T21:21:56;3.35;;;0.95;;
16967;SDS011;64862;54.398;10.126;2023-02-03T21:31:59;5.30;;;1.10;;
16967;SDS011;64862;54.398;10.126;2023-02-03T21:42:14;5.10;;;1.08;;
16967;SDS011;64862;54.398;10.126;2023-02-03T21:52:40;6.18;;;1.27;;
16967;SDS011;64862;54.398;10.126;2023-02-03T22:02:51;5.50;;;1.00;;
16967;SDS011;64862;54.398;10.126;2023-02-03T22:12:57;8.07;;;1.20;;
16967;SDS011;64862;54.398;10.126;2023-02-03T22:23:01;2.97;;;1.02;;
16967;SDS011;64862;54.398;10.126;2023-02-03T22:33:04;2.20;;;0.90;;
16967;SDS011;64862;54.398;10.126;2023-02-03T22:43:08;4.68;;;1.00;;
16967;SDS011;64862;54.398;10.126;2023-02-03T22:53:11;4.47;;;0.85;;
16967;SDS011;64862;54.398;10.126;2023-02-03T23:03:16;5.85;;;0.98;;
16967;SDS011;64862;54.398;10.126;2023-02-03T23:13:18;4.85;;;1.08;;
16967;SDS011;64862;54.398;10.126;2023-02-03T23:23:22;4.70;;;1.40;;
16967;SDS011;64862;54.398;10.126;2023-02-03T23:33:27;6.18;;;1.02;;
16967;SDS011;64862;54.398;10.126;2023-02-03T23:43:30;5.43;;;0.70;;
16967;SDS011;64862;54.398;10.126;2023-02-03T23:53:33;2.92;;;0.80;;
